Terminal Aerodrome Forecast
Issued by NWS

Home | Current Version | Previous Version | Text Only | Print | Product List | Glossary On
Versions: 1 2 3 4 5 6 7 8 9 10 11 12 13 14 15 16 17 18 19 20 21 22 23 24 25 26 27 28 29 30 31
000
FTUS43 KDVN 031544 AAB
TAFCID
TAF AMD
KCID 031544Z 0316/0412 17010KT 3SM TSRA OVC050CB
     FM031630 18014G20KT P6SM VCTS SCT050CB BKN120
     FM031700 19016G22KT P6SM SCT080 BKN150
     FM040000 20010KT P6SM BKN080
     FM040400 20007KT 6SM -RA BR VCTS SCT050 BKN070CB
     FM040800 28007KT 4SM -RA BR VCTS OVC035CB=

USA.gov is the U.S. government's official web portal to all federal, state and local government web resources and services.